Portada
METAR-TAF:

METAR-TAF

Aeroports :

Nenana, Alaska, Estats Units d'Amèrica

latitud: 64-33N, longitud: 149-05W, altitud: 110 m

Observació

L'informe es va fer fa 15 minuts, a les 07:53 UTC
Vent calma
Temperatura -23°C
Humitat 70%
Pressió 1003 hPa
Visibilitat: 16.1 km
Cel cobert a una alçada de 7000 ft

METAR: PANN 220753Z AUTO 00000KT 10SM OVC070 M23/M27 A2961 RMK AO2 SLP045 T12281272 TSNO

Hora: 23:08 (08:08 UTC)


TAF: manca

Observacions i pronòstics meteorològics de més de 4000 aeroports (METAR i TAF).

Les estacions disponibles són els punts grocs i vermells al mapa.

Posi el ratolí al punt desitjat per veure el nom de l'estació.

Feu clic per veure les observacions i els pronòstics meteorològics.

Per canviar el mapa: feu clic els botons verds amb una creu de color negre per apropar; al botó verd amb un guió per allunyar la imatge; o en les fletxes verdes per a mapes adjacents.


METAR-TAF: